Time;durP1;ratioP1;P1;durP2;ratioP2;P2;SDS_P1;SDS_P2;PMS_P1;PMS_P2;Temp;Humidity;BMP_temperature;BMP_pressure;BME280_temperature;BME280_humidity;BME280_pressure;Samples;Min_cycle;Max_cycle;Signal;HPM_P1;HPM_P2
2021/05/14 00:00:09;;;;;;;5.13;4.57;;;14.80;99.90;;;;;;5037324;28;20175;-68
2021/05/14 00:02:35;;;;;;;5.20;4.60;;;14.80;99.90;;;;;;5037733;28;20423;-67
2021/05/14 00:05:01;;;;;;;5.77;4.93;;;14.80;99.90;;;;;;5037192;28;20446;-69
2021/05/14 00:07:27;;;;;;;4.80;4.40;;;14.80;99.90;;;;;;5037231;28;20455;-68
2021/05/14 00:09:53;;;;;;;5.97;5.37;;;14.80;99.90;;;;;;5019431;28;20420;-67
2021/05/14 00:12:19;;;;;;;5.33;4.83;;;14.90;99.90;;;;;;5037491;28;20547;-67
2021/05/14 00:14:45;;;;;;;6.03;5.53;;;14.90;99.90;;;;;;5036909;28;20466;-68
2021/05/14 00:17:10;;;;;;;5.47;4.67;;;14.90;99.90;;;;;;5037389;28;20281;-66
2021/05/14 00:19:36;;;;;;;6.37;5.73;;;14.80;99.90;;;;;;5035730;28;20220;-69
2021/05/14 00:22:01;;;;;;;5.73;5.13;;;14.80;99.90;;;;;;5037266;28;20206;-68
2021/05/14 00:24:27;;;;;;;5.80;5.30;;;14.80;99.90;;;;;;5036967;28;20213;-69
2021/05/14 00:26:53;;;;;;;6.53;4.80;;;14.70;99.90;;;;;;5037000;28;20194;-67
2021/05/14 00:29:18;;;;;;;5.40;4.90;;;14.80;99.90;;;;;;5036798;28;20662;-68
2021/05/14 00:31:44;;;;;;;5.83;5.23;;;14.80;99.90;;;;;;5035575;28;20198;-67
2021/05/14 00:34:09;;;;;;;5.60;5.00;;;14.80;99.90;;;;;;5036616;28;20210;-67
2021/05/14 00:36:35;;;;;;;5.70;5.10;;;14.80;99.90;;;;;;5036664;28;20639;-68
2021/05/14 00:39:01;;;;;;;6.30;5.07;;;14.80;99.90;;;;;;5036551;28;20170;-69
2021/05/14 00:41:26;;;;;;;5.50;4.83;;;14.80;99.90;;;;;;5036922;28;20257;-67
2021/05/14 00:43:52;;;;;;;5.07;4.60;;;14.80;99.90;;;;;;5036663;28;20600;-68
2021/05/14 00:46:17;;;;;;;5.77;4.23;;;14.80;99.90;;;;;;5036657;28;20253;-67
2021/05/14 00:48:43;;;;;;;5.13;4.13;;;14.70;99.90;;;;;;5036478;28;20313;-69
2021/05/14 00:51:09;;;;;;;4.70;3.97;;;14.70;99.90;;;;;;5036293;28;20729;-68
2021/05/14 00:53:35;;;;;;;5.13;4.63;;;14.70;99.90;;;;;;5034720;28;20175;-69
2021/05/14 00:56:04;;;;;;;4.30;4.00;;;14.80;99.90;;;;;;5036208;28;20471;-67
2021/05/14 00:58:30;;;;;;;5.33;3.80;;;14.80;99.90;;;;;;5036230;28;20641;-67
2021/05/14 01:00:56;;;;;;;5.90;4.27;;;14.80;99.90;;;;;;5036147;28;20798;-69
2021/05/14 01:03:21;;;;;;;5.07;3.80;;;14.80;99.90;;;;;;5036062;28;20430;-68
2021/05/14 01:05:47;;;;;;;4.10;3.70;;;14.70;99.90;;;;;;5036100;28;20218;-66
2021/05/14 01:08:13;;;;;;;3.97;3.20;;;14.70;99.90;;;;;;5017999;28;20230;-69
2021/05/14 01:10:38;;;;;;;3.80;3.40;;;14.70;99.90;;;;;;5036251;28;20253;-70
2021/05/14 01:13:05;;;;;;;4.27;3.00;;;14.60;99.90;;;;;;5035871;28;20210;-70
2021/05/14 01:15:30;;;;;;;3.20;2.90;;;14.60;99.90;;;;;;5035769;28;20238;-68
2021/05/14 01:17:56;;;;;;;3.80;3.50;;;14.60;99.90;;;;;;5035976;28;20870;-69
2021/05/14 01:20:31;;;;;;;3.17;2.97;;;14.70;99.90;;;;;;5034328;28;20639;-69
2021/05/14 01:22:57;;;;;;;3.77;3.30;;;14.70;99.90;;;;;;5035850;28;20277;-67
2021/05/14 01:25:23;;;;;;;3.43;3.13;;;14.70;99.90;;;;;;5035579;28;20479;-69
2021/05/14 01:27:49;;;;;;;3.00;2.80;;;14.70;99.90;;;;;;5034417;28;20478;-68
2021/05/14 01:30:18;;;;;;;3.40;3.17;;;14.60;99.90;;;;;;5034393;28;20175;-68
2021/05/14 01:32:43;;;;;;;3.57;3.23;;;14.60;99.90;;;;;;5034300;28;20198;-66
2021/05/14 01:35:09;;;;;;;3.17;2.87;;;14.60;99.90;;;;;;5035360;28;20451;-68
2021/05/14 01:37:38;;;;;;;3.30;3.00;;;14.70;99.90;;;;;;5035982;28;20198;-68
2021/05/14 01:40:05;;;;;;;2.70;2.50;;;14.60;99.90;;;;;;5035442;28;20416;-68
2021/05/14 01:42:30;;;;;;;3.97;2.97;;;14.50;99.90;;;;;;5034307;28;20452;-68
2021/05/14 01:44:56;;;;;;;2.60;2.40;;;14.50;99.90;;;;;;5035436;28;20419;-68
2021/05/14 01:47:21;;;;;;;3.43;3.13;;;14.50;99.90;;;;;;5035791;28;20236;-69
2021/05/14 01:49:47;;;;;;;2.90;2.67;;;14.50;99.90;;;;;;5035363;28;20226;-69
2021/05/14 01:52:12;;;;;;;3.40;3.13;;;14.50;99.90;;;;;;5035548;28;20194;-67
2021/05/14 01:54:38;;;;;;;2.50;2.30;;;14.50;99.90;;;;;;5033911;28;20241;-68
2021/05/14 01:57:04;;;;;;;3.03;2.73;;;14.40;99.90;;;;;;5035337;28;20286;-68
2021/05/14 01:59:29;;;;;;;3.27;2.73;;;14.30;99.90;;;;;;5017377;28;20210;-69
2021/05/14 02:01:55;;;;;;;2.80;2.60;;;14.30;99.90;;;;;;5033908;28;20947;-69
2021/05/14 02:04:20;;;;;;;3.17;2.87;;;14.30;99.90;;;;;;5034161;28;20225;-68
2021/05/14 02:06:46;;;;;;;3.33;2.93;;;14.30;99.90;;;;;;5035323;28;20198;-67
2021/05/14 02:09:12;;;;;;;3.03;2.77;;;14.30;99.90;;;;;;5035005;28;20316;-66
2021/05/14 02:11:37;;;;;;;3.70;3.30;;;14.30;99.90;;;;;;5033791;28;20205;-67
2021/05/14 02:14:03;;;;;;;2.97;2.77;;;14.20;99.90;;;;;;5034746;28;20174;-69
2021/05/14 02:16:29;;;;;;;2.87;2.67;;;14.30;99.90;;;;;;5035002;28;20509;-68
2021/05/14 02:18:55;;;;;;;3.00;2.70;;;14.20;99.90;;;;;;5034817;28;20408;-68
2021/05/14 02:21:20;;;;;;;4.03;3.03;;;14.20;99.90;;;;;;5034855;28;20182;-67
2021/05/14 02:23:46;;;;;;;3.80;2.90;;;14.30;99.90;;;;;;5034687;28;20308;-68
2021/05/14 02:26:11;;;;;;;3.20;3.00;;;14.30;99.90;;;;;;5034511;28;20210;-69
2021/05/14 02:28:37;;;;;;;3.87;3.57;;;14.20;99.90;;;;;;5034584;28;20179;-70
2021/05/14 02:31:03;;;;;;;3.80;3.50;;;14.30;99.90;;;;;;5034721;28;20202;-67
2021/05/14 02:33:29;;;;;;;3.80;3.50;;;14.20;99.90;;;;;;5034447;28;20202;-67
2021/05/14 02:35:55;;;;;;;3.80;3.40;;;14.20;99.90;;;;;;5028876;28;20478;-67
2021/05/14 02:38:21;;;;;;;3.30;3.10;;;14.20;99.90;;;;;;5034434;28;20432;-67
2021/05/14 02:40:46;;;;;;;4.20;3.90;;;14.20;99.90;;;;;;5034398;28;20188;-67
2021/05/14 02:43:12;;;;;;;3.83;3.53;;;14.30;99.90;;;;;;5032972;28;20431;-67
2021/05/14 02:45:37;;;;;;;4.37;3.97;;;14.30;99.90;;;;;;5034072;28;20570;-67
2021/05/14 02:48:04;;;;;;;3.70;3.40;;;14.30;99.90;;;;;;5034143;28;20197;-68
2021/05/14 02:50:29;;;;;;;4.23;3.30;;;14.20;99.90;;;;;;5034148;28;20171;-68
2021/05/14 02:52:55;;;;;;;4.30;4.00;;;14.30;99.90;;;;;;5032857;28;20952;-69
2021/05/14 02:55:20;;;;;;;4.23;3.83;;;14.20;99.90;;;;;;5032652;28;20301;-67
2021/05/14 02:57:47;;;;;;;4.07;3.77;;;14.10;99.90;;;;;;5032567;28;20564;-68
2021/05/14 03:00:13;;;;;;;4.90;4.13;;;14.10;99.90;;;;;;5032766;28;20193;-69
2021/05/14 03:02:39;;;;;;;4.60;4.20;;;14.10;99.90;;;;;;5034415;28;20785;-68
2021/05/14 03:05:06;;;;;;;4.40;4.10;;;14.10;99.90;;;;;;5033824;28;20396;-68
2021/05/14 03:07:31;;;;;;;4.27;3.90;;;14.00;99.90;;;;;;5034138;28;20253;-68
2021/05/14 03:09:57;;;;;;;4.20;3.90;;;14.00;99.90;;;;;;5034048;28;20478;-67
2021/05/14 03:12:22;;;;;;;4.60;4.20;;;14.00;99.90;;;;;;5034262;28;20750;-66
2021/05/14 03:14:48;;;;;;;3.60;3.30;;;14.00;99.90;;;;;;5033774;28;20292;-68
2021/05/14 03:17:14;;;;;;;4.40;4.10;;;14.00;99.90;;;;;;5032137;28;20217;-69
2021/05/14 03:19:40;;;;;;;4.23;3.90;;;14.00;99.90;;;;;;5033721;28;20178;-68
2021/05/14 03:22:05;;;;;;;4.53;4.13;;;14.00;99.90;;;;;;5032640;28;20690;-67
2021/05/14 03:24:31;;;;;;;4.77;4.37;;;13.90;99.90;;;;;;5048971;28;20534;-68
2021/05/14 03:26:57;;;;;;;4.73;4.33;;;13.90;99.90;;;;;;5033993;28;20194;-68
2021/05/14 03:29:22;;;;;;;4.80;4.40;;;13.80;99.90;;;;;;5033613;28;20182;-67
2021/05/14 03:31:49;;;;;;;4.40;4.10;;;13.80;99.90;;;;;;5032424;28;20285;-69
2021/05/14 03:34:14;;;;;;;4.60;4.20;;;13.80;99.90;;;;;;5033570;28;20224;-69
2021/05/14 03:36:40;;;;;;;5.10;4.70;;;13.80;99.90;;;;;;5032236;28;20443;-68
2021/05/14 03:39:09;;;;;;;6.70;5.67;;;13.80;99.90;;;;;;5033660;28;20220;-70
2021/05/14 03:41:49;;;;;;;4.97;4.60;;;14.00;99.90;;;;;;5033700;28;20206;-67
2021/05/14 03:44:15;;;;;;;4.57;4.17;;;13.90;99.90;;;;;;5033620;28;20392;-69
2021/05/14 03:46:41;;;;;;;9.53;5.07;;;13.80;99.90;;;;;;5033742;28;20446;-68
2021/05/14 03:49:07;;;;;;;5.90;5.17;;;13.90;99.90;;;;;;5031231;28;20178;-68
2021/05/14 03:51:37;;;;;;;5.67;5.00;;;14.00;99.90;;;;;;5031550;28;20498;-67
2021/05/14 03:54:03;;;;;;;5.53;5.03;;;14.00;99.90;;;;;;5028363;28;20424;-67
2021/05/14 03:56:29;;;;;;;5.90;5.40;;;14.30;99.90;;;;;;5026217;28;20423;-68
2021/05/14 03:58:55;;;;;;;5.40;5.00;;;14.40;99.90;;;;;;5064251;28;20430;-70
2021/05/14 04:01:21;;;;;;;4.63;4.27;;;14.40;99.90;;;;;;5030612;28;20435;-68
2021/05/14 04:03:48;;;;;;;5.93;5.43;;;14.40;99.90;;;;;;5033376;28;20190;-69
2021/05/14 04:06:13;;;;;;;5.47;5.07;;;14.40;99.90;;;;;;5063829;28;20194;-66
2021/05/14 04:08:39;;;;;;;5.67;5.17;;;14.50;99.90;;;;;;5031148;28;20479;-67
2021/05/14 04:16:14;;;;;;;6.33;5.83;;;14.50;99.90;;;;;;5012723;28;20250;-68
2021/05/14 04:18:40;;;;;;;5.33;4.83;;;14.70;99.90;;;;;;5013593;28;20442;-68
2021/05/14 04:21:06;;;;;;;5.50;5.10;;;14.70;99.90;;;;;;5028576;28;20190;-69
2021/05/14 04:23:32;;;;;;;4.73;4.37;;;14.60;99.90;;;;;;5027053;28;20216;-68
2021/05/14 04:25:58;;;;;;;5.80;5.30;;;14.40;99.90;;;;;;5032614;28;20514;-69
2021/05/14 04:28:23;;;;;;;5.57;5.17;;;14.40;99.90;;;;;;5031012;28;20199;-67
2021/05/14 04:30:49;;;;;;;5.93;5.33;;;14.30;99.90;;;;;;5033890;28;20182;-67
2021/05/14 04:33:15;;;;;;;5.40;4.77;;;14.30;99.90;;;;;;5035594;28;20213;-68
2021/05/14 04:35:40;;;;;;;5.87;5.30;;;14.30;99.90;;;;;;5035521;28;20237;-69
2021/05/14 04:38:06;;;;;;;5.20;4.70;;;14.40;99.90;;;;;;5035925;28;20210;-68
2021/05/14 04:40:31;;;;;;;5.33;4.73;;;14.50;99.90;;;;;;5035805;28;20185;-67
2021/05/14 04:43:04;;;;;;;4.83;4.43;;;14.40;99.90;;;;;;5035224;28;20205;-68
2021/05/14 04:45:30;;;;;;;4.90;4.50;;;14.50;99.90;;;;;;5034491;28;20201;-68
2021/05/14 04:47:56;;;;;;;5.07;4.50;;;14.40;99.90;;;;;;5033166;28;20502;-68
2021/05/14 04:50:21;;;;;;;4.17;3.77;;;14.40;99.90;;;;;;5029967;28;20448;-67
2021/05/14 04:52:47;;;;;;;4.17;3.87;;;14.40;99.90;;;;;;5034225;28;20206;-67
2021/05/14 04:55:15;;;;;;;4.53;4.13;;;14.40;99.90;;;;;;5021860;28;20226;-68
2021/05/14 04:57:41;;;;;;;5.33;4.80;;;14.50;99.90;;;;;;5034895;28;20467;-67
2021/05/14 05:00:07;;;;;;;4.60;4.20;;;14.50;99.90;;;;;;5034157;28;20465;-68
2021/05/14 05:02:35;;;;;;;5.00;4.60;;;14.60;99.90;;;;;;5035087;28;20272;-69
2021/05/14 05:05:01;;;;;;;4.60;4.20;;;14.60;99.90;;;;;;5022850;28;20447;-68
2021/05/14 05:07:27;;;;;;;5.00;4.60;;;14.70;99.90;;;;;;5024260;28;20566;-67
2021/05/14 05:09:52;;;;;;;4.60;4.20;;;15.00;99.90;;;;;;5035116;28;20186;-67
2021/05/14 05:12:18;;;;;;;5.20;4.70;;;15.00;99.90;;;;;;5033782;28;20217;-67
2021/05/14 05:14:43;;;;;;;4.70;4.23;;;15.00;99.90;;;;;;5024762;28;20218;-68
2021/05/14 05:17:09;;;;;;;13.87;10.70;;;15.10;99.90;;;;;;5029770;28;20206;-69
2021/05/14 05:19:35;;;;;;;4.10;3.80;;;15.10;99.90;;;;;;5034504;28;20190;-70
2021/05/14 05:22:01;;;;;;;4.23;3.83;;;15.00;99.90;;;;;;5034054;28;20455;-67
2021/05/14 05:24:27;;;;;;;5.20;4.80;;;15.20;99.90;;;;;;5030993;28;20452;-68
2021/05/14 05:26:52;;;;;;;4.40;3.97;;;15.20;99.90;;;;;;5033106;28;20276;-67
2021/05/14 05:29:18;;;;;;;3.97;3.67;;;15.10;99.90;;;;;;5025074;28;20439;-69
2021/05/14 05:31:44;;;;;;;3.33;3.03;;;15.00;99.90;;;;;;5024797;28;20210;-68
2021/05/14 05:34:10;;;;;;;4.17;3.87;;;15.00;99.90;;;;;;5034763;28;20187;-67
2021/05/14 05:36:36;;;;;;;4.40;4.07;;;14.90;99.90;;;;;;5031634;28;20249;-66
2021/05/14 05:39:03;;;;;;;4.00;3.60;;;14.90;99.90;;;;;;5032056;28;20195;-67
2021/05/14 05:41:28;;;;;;;13.03;11.10;;;15.00;99.90;;;;;;5032468;28;20920;-67
2021/05/14 05:43:54;;;;;;;130.90;86.13;;;15.00;99.90;;;;;;5030671;28;20430;-70
2021/05/14 05:46:21;;;;;;;5.93;4.37;;;15.00;99.90;;;;;;5033842;28;20183;-67
2021/05/14 05:48:46;;;;;;;4.03;3.63;;;15.00;99.90;;;;;;5034846;28;20486;-68
2021/05/14 05:51:15;;;;;;;3.77;3.47;;;15.00;99.90;;;;;;5032640;28;20432;-69
2021/05/14 05:53:42;;;;;;;3.40;3.10;;;15.00;99.90;;;;;;5034689;28;20187;-67
2021/05/14 05:56:08;;;;;;;3.80;3.40;;;14.90;99.90;;;;;;5031200;28;20568;-67
2021/05/14 05:58:35;;;;;;;3.70;3.37;;;15.00;99.90;;;;;;5031658;28;20431;-69
2021/05/14 06:01:01;;;;;;;4.43;3.73;;;15.10;99.90;;;;;;5034358;28;20928;-70
2021/05/14 06:03:27;;;;;;;3.60;3.30;;;15.10;99.90;;;;;;5033705;28;20440;-67
2021/05/14 06:05:52;;;;;;;3.77;3.47;;;15.10;99.90;;;;;;5031761;28;20435;-67
2021/05/14 06:08:18;;;;;;;3.60;3.30;;;15.10;99.90;;;;;;5032214;28;20308;-67
2021/05/14 06:10:46;;;;;;;3.53;3.13;;;14.90;99.90;;;;;;5033121;28;20221;-69
2021/05/14 06:13:11;;;;;;;3.83;3.53;;;14.90;99.90;;;;;;5056494;28;20203;-69
2021/05/14 06:15:37;;;;;;;4.30;3.50;;;14.90;99.90;;;;;;5032063;28;20825;-68
2021/05/14 06:18:03;;;;;;;3.60;3.30;;;14.90;99.90;;;;;;5030639;28;20199;-68
2021/05/14 06:20:31;;;;;;;3.50;3.13;;;14.90;99.90;;;;;;5033535;28;20182;-68
2021/05/14 06:22:56;;;;;;;3.57;3.30;;;14.90;99.90;;;;;;5031287;28;20840;-67
2021/05/14 06:25:22;;;;;;;3.47;3.20;;;15.10;99.90;;;;;;5024160;28;20522;-70
2021/05/14 06:27:48;;;;;;;3.57;3.27;;;14.90;99.90;;;;;;5029611;28;20210;-69
2021/05/14 06:30:14;;;;;;;4.40;3.33;;;14.80;99.90;;;;;;5033164;28;20179;-69
2021/05/14 06:32:40;;;;;;;3.67;3.37;;;14.90;99.90;;;;;;5032045;28;20257;-69
2021/05/14 06:35:06;;;;;;;3.90;3.50;;;14.90;99.90;;;;;;5028909;28;20468;-68
2021/05/14 06:37:37;;;;;;;4.00;3.40;;;15.00;99.90;;;;;;5065793;28;20262;-68
2021/05/14 06:40:08;;;;;;;3.77;3.43;;;14.90;99.90;;;;;;5031336;28;20427;-67
2021/05/14 06:42:33;;;;;;;3.60;3.30;;;14.90;99.90;;;;;;5032647;28;20498;-67
2021/05/14 06:44:59;;;;;;;3.60;3.30;;;14.90;99.90;;;;;;5030506;28;20467;-68
2021/05/14 06:47:25;;;;;;;7.47;4.03;;;15.10;99.90;;;;;;5029339;28;20593;-69
2021/05/14 06:49:51;;;;;;;5.23;3.87;;;15.30;99.90;;;;;;5025050;28;20549;-69
2021/05/14 06:52:16;;;;;;;3.50;3.20;;;15.30;99.90;;;;;;5023248;28;20202;-70
2021/05/14 06:54:42;;;;;;;3.53;3.23;;;15.30;99.90;;;;;;5032155;28;20245;-67
2021/05/14 06:57:09;;;;;;;3.17;2.90;;;15.30;99.90;;;;;;5026129;28;20668;-67
2021/05/14 06:59:34;;;;;;;3.40;3.10;;;15.40;99.90;;;;;;5029421;28;20171;-68
2021/05/14 07:02:00;;;;;;;3.07;2.87;;;15.70;99.90;;;;;;5033214;28;20478;-68
2021/05/14 07:04:25;;;;;;;3.00;2.80;;;15.70;99.90;;;;;;5033100;28;20605;-68
2021/05/14 07:06:51;;;;;;;3.53;3.23;;;15.60;99.90;;;;;;5031183;28;20845;-70
2021/05/14 07:09:17;;;;;;;3.40;3.10;;;15.50;99.90;;;;;;5029252;28;20630;-69
2021/05/14 07:11:42;;;;;;;3.40;3.10;;;15.50;99.90;;;;;;5032179;28;20210;-68
2021/05/14 07:14:08;;;;;;;4.40;3.20;;;15.50;99.90;;;;;;5030198;28;20644;-69
2021/05/14 07:16:34;;;;;;;2.77;2.53;;;15.60;99.90;;;;;;5028074;28;20210;-67
2021/05/14 07:18:59;;;;;;;19.10;15.00;;;15.70;99.90;;;;;;5026179;28;22278;-70
2021/05/14 07:21:25;;;;;;;2.90;2.60;;;15.70;99.90;;;;;;5020701;28;20280;-70
2021/05/14 07:23:50;;;;;;;3.07;2.40;;;15.70;99.90;;;;;;5026582;28;20632;-67
2021/05/14 07:26:17;;;;;;;2.70;2.10;;;15.70;99.90;;;;;;5051574;28;20758;-68
2021/05/14 07:28:43;;;;;;;6.40;4.10;;;15.90;99.90;;;;;;5020092;28;20179;-70
2021/05/14 07:31:08;;;;;;;7.00;5.03;;;16.10;99.90;;;;;;5025483;28;20439;-69
2021/05/14 07:33:37;;;;;;;3.10;2.90;;;16.10;99.90;;;;;;5032027;28;20194;-69
2021/05/14 07:36:03;;;;;;;3.80;3.50;;;16.10;99.90;;;;;;5031327;28;20218;-67
2021/05/14 07:38:29;;;;;;;4.80;2.73;;;16.20;99.90;;;;;;5027539;28;20437;-68
2021/05/14 07:40:54;;;;;;;7.20;6.43;;;16.30;99.90;;;;;;5026050;28;20775;-67
2021/05/14 07:43:20;;;;;;;6.00;5.40;;;16.50;99.90;;;;;;5028456;28;20252;-68
2021/05/14 07:45:46;;;;;;;3.20;2.93;;;16.50;99.90;;;;;;5029320;28;20179;-70
2021/05/14 07:48:20;;;;;;;5.13;3.77;;;16.40;99.90;;;;;;5029637;28;20194;-68
2021/05/14 07:50:49;;;;;;;3.77;3.40;;;16.20;99.90;;;;;;5025156;28;20275;-67
2021/05/14 07:53:15;;;;;;;4.73;4.40;;;16.50;99.90;;;;;;5024428;28;20451;-69
2021/05/14 07:55:41;;;;;;;2.80;2.60;;;16.70;99.90;;;;;;5028098;28;20478;-68
2021/05/14 07:58:07;;;;;;;4.20;3.80;;;16.90;99.90;;;;;;5030071;28;20571;-69
2021/05/14 08:00:33;;;;;;;3.67;3.13;;;16.60;99.90;;;;;;5023508;28;20429;-70
2021/05/14 08:02:58;;;;;;;3.67;3.37;;;16.70;99.90;;;;;;5026789;28;20213;-69
2021/05/14 08:05:24;;;;;;;2.90;2.70;;;16.70;99.90;;;;;;5027973;28;20565;-67
2021/05/14 08:08:07;;;;;;;5.10;3.73;;;16.70;99.90;;;;;;5032513;28;20237;-67
2021/05/14 08:10:33;;;;;;;3.77;3.37;;;16.70;99.90;;;;;;5031611;28;20189;-69
2021/05/14 08:12:58;;;;;;;4.50;3.30;;;16.90;99.90;;;;;;5033766;28;20443;-67
2021/05/14 08:15:24;;;;;;;3.63;3.13;;;17.10;99.90;;;;;;5032143;28;20327;-67
2021/05/14 08:17:51;;;;;;;4.03;3.33;;;17.20;99.90;;;;;;5031511;28;20202;-69
2021/05/14 08:20:17;;;;;;;3.50;3.10;;;17.20;99.90;;;;;;5058621;28;20671;-68
2021/05/14 08:22:44;;;;;;;5.43;3.77;;;17.50;99.90;;;;;;5031967;28;20814;-69
2021/05/14 08:25:11;;;;;;;3.40;2.40;;;17.40;99.90;;;;;;5028722;28;20506;-71
2021/05/14 08:27:37;;;;;;;6.70;2.83;;;17.20;99.90;;;;;;5034656;28;20559;-70
2021/05/14 08:30:05;;;;;;;2.60;2.40;;;17.30;99.90;;;;;;5034593;28;20431;-71
2021/05/14 08:32:31;;;;;;;3.17;2.87;;;17.60;99.90;;;;;;5033683;28;20455;-70
2021/05/14 08:34:56;;;;;;;4.30;3.17;;;17.70;99.90;;;;;;5029410;28;20471;-68
2021/05/14 08:37:22;;;;;;;3.87;3.00;;;17.80;99.90;;;;;;5027466;28;20215;-69
2021/05/14 08:39:47;;;;;;;3.40;3.00;;;17.80;99.90;;;;;;5024450;28;20186;-70
2021/05/14 08:42:13;;;;;;;2.90;2.70;;;17.80;99.90;;;;;;5028468;28;20310;-67
2021/05/14 08:44:40;;;;;;;4.40;2.40;;;17.90;99.90;;;;;;5024563;28;20218;-68
2021/05/14 08:47:06;;;;;;;4.47;2.60;;;17.90;99.90;;;;;;5029409;28;20467;-67
2021/05/14 08:49:33;;;;;;;2.97;2.70;;;17.40;99.90;;;;;;5028704;28;20602;-68
2021/05/14 08:52:03;;;;;;;3.80;3.33;;;17.70;99.90;;;;;;5027334;28;20471;-67
2021/05/14 08:54:29;;;;;;;2.40;1.90;;;18.00;99.90;;;;;;5029761;28;20907;-70
2021/05/14 08:56:54;;;;;;;3.97;1.63;;;18.20;99.90;;;;;;5030386;28;20451;-67
2021/05/14 08:59:20;;;;;;;3.17;2.33;;;18.20;99.90;;;;;;5062287;28;20493;-70
2021/05/14 09:01:46;;;;;;;3.23;1.80;;;18.10;99.90;;;;;;5032052;28;20225;-69
2021/05/14 09:04:16;;;;;;;1.80;1.70;;;18.20;99.90;;;;;;5023177;28;20181;-68
2021/05/14 09:06:43;;;;;;;2.10;1.73;;;18.10;99.90;;;;;;5027739;28;20654;-67
2021/05/14 09:09:10;;;;;;;1.70;1.60;;;18.10;99.90;;;;;;5031986;28;20466;-69
2021/05/14 09:11:43;;;;;;;2.57;2.37;;;18.10;99.90;;;;;;5031121;28;20498;-69
2021/05/14 09:14:31;;;;;;;2.03;1.40;;;18.10;99.90;;;;;;5029334;28;20425;-67
2021/05/14 09:16:56;;;;;;;2.27;2.03;;;18.20;99.90;;;;;;5033170;28;20492;-69
2021/05/14 09:19:46;;;;;;;6.50;2.20;;;18.20;99.90;;;;;;5031809;28;20429;-69
2021/05/14 09:22:18;;;;;;;2.47;2.30;;;18.20;99.90;;;;;;5022887;28;20282;-69
2021/05/14 09:24:55;;;;;;;2.97;2.40;;;18.20;99.90;;;;;;5026326;28;20421;-70
2021/05/14 09:27:23;;;;;;;3.67;2.67;;;18.20;99.90;;;;;;5031988;28;20448;-70
2021/05/14 09:29:49;;;;;;;2.30;2.13;;;18.20;99.90;;;;;;5030695;28;20455;-67
2021/05/14 09:32:18;;;;;;;1.70;1.60;;;18.10;99.90;;;;;;5032235;28;20980;-68
2021/05/14 09:34:48;;;;;;;2.90;2.60;;;18.10;99.90;;;;;;5031476;28;20223;-69
2021/05/14 09:37:15;;;;;;;2.47;2.20;;;18.20;99.90;;;;;;5019845;28;20873;-69
2021/05/14 09:39:40;;;;;;;2.87;2.40;;;18.30;99.90;;;;;;5027717;28;20431;-70
2021/05/14 09:42:06;;;;;;;3.67;3.37;;;18.20;99.90;;;;;;5030902;28;20462;-69
2021/05/14 09:44:31;;;;;;;2.63;2.43;;;18.10;99.90;;;;;;5030476;28;20637;-69
2021/05/14 09:46:58;;;;;;;2.50;2.30;;;18.30;99.90;;;;;;5032203;28;20546;-68
2021/05/14 09:49:25;;;;;;;3.70;3.40;;;18.20;99.90;;;;;;5021204;28;20269;-67
2021/05/14 09:52:05;;;;;;;3.13;2.50;;;18.20;99.90;;;;;;5029303;28;20455;-69
2021/05/14 09:54:36;;;;;;;3.30;3.00;;;18.10;99.90;;;;;;5024726;28;20487;-71
2021/05/14 09:59:56;;;;;;;4.13;3.30;;;18.20;99.90;;;;;;5031469;28;20442;-69
2021/05/14 10:02:23;;;;;;;6.43;4.40;;;18.10;99.90;;;;;;5026326;28;20462;-70
2021/05/14 10:04:50;;;;;;;7.53;4.77;;;17.90;99.90;;;;;;5022749;28;20814;-67
2021/05/14 10:07:17;;;;;;;8.10;4.60;;;17.60;99.90;;;;;;5028463;28;20847;-68
2021/05/14 10:09:46;;;;;;;6.70;4.43;;;17.50;99.90;;;;;;5063027;28;20443;-67
2021/05/14 10:12:13;;;;;;;5.10;4.60;;;17.40;99.90;;;;;;5031185;28;20545;-68
2021/05/14 10:14:39;;;;;;;5.10;4.57;;;17.30;99.90;;;;;;5030615;28;20502;-68
2021/05/14 10:17:07;;;;;;;4.50;4.10;;;17.40;99.90;;;;;;5033241;28;20454;-67
2021/05/14 10:19:35;;;;;;;5.20;4.30;;;17.40;99.90;;;;;;5065444;28;20411;-69
2021/05/14 10:22:05;;;;;;;4.00;3.70;;;17.40;99.90;;;;;;5031329;28;20455;-67
2021/05/14 10:24:46;;;;;;;4.33;3.93;;;17.40;99.90;;;;;;5030633;28;20810;-67
2021/05/14 10:27:17;;;;;;;5.17;4.73;;;17.40;99.90;;;;;;5032857;28;20459;-67
2021/05/14 10:29:45;;;;;;;6.33;5.73;;;17.50;99.90;;;;;;5032404;28;20419;-68
2021/05/14 10:32:12;;;;;;;8.17;7.37;;;17.60;99.90;;;;;;5026366;28;20464;-70
2021/05/14 10:34:38;;;;;;;9.10;6.20;;;17.70;99.90;;;;;;5029625;28;20904;-70
2021/05/14 10:37:03;;;;;;;6.77;5.03;;;17.80;99.90;;;;;;5031623;28;20443;-67
2021/05/14 10:39:38;;;;;;;4.63;4.23;;;18.00;99.90;;;;;;5031440;28;20183;-69
2021/05/14 10:42:06;;;;;;;4.37;3.97;;;18.30;99.90;;;;;;5031249;28;20237;-69
2021/05/14 10:44:38;;;;;;;4.87;4.47;;;18.40;99.90;;;;;;5028539;28;20830;-70
2021/05/14 10:47:26;;;;;;;2.77;2.53;;;18.50;99.90;;;;;;5024721;28;20597;-69
2021/05/14 10:50:05;;;;;;;1.63;1.53;;;18.90;99.90;;;;;;5024958;28;20464;-69
2021/05/14 10:52:33;;;;;;;2.07;1.70;;;19.00;99.90;;;;;;5025486;28;20451;-68
2021/05/14 10:54:59;;;;;;;2.37;2.20;;;19.20;99.90;;;;;;5024861;28;20490;-69
2021/05/14 10:57:40;;;;;;;1.93;1.83;;;19.40;99.90;;;;;;5023510;28;20452;-69
2021/05/14 11:00:27;;;;;;;2.10;1.90;;;19.40;99.90;;;;;;5027854;28;20416;-70
2021/05/14 11:03:14;;;;;;;2.20;2.00;;;19.50;99.90;;;;;;5025801;28;20456;-68
2021/05/14 11:05:44;;;;;;;2.80;1.97;;;19.50;99.90;;;;;;5026789;28;20557;-70
2021/05/14 11:08:33;;;;;;;3.17;1.87;;;19.50;99.90;;;;;;5024391;28;20472;-68
2021/05/14 11:11:00;;;;;;;2.33;2.23;;;19.90;99.90;;;;;;5031147;28;20450;-70
2021/05/14 11:13:48;;;;;;;2.30;1.57;;;20.50;99.90;;;;;;5061688;28;20472;-69
2021/05/14 11:16:40;;;;;;;1.93;1.73;;;20.90;99.90;;;;;;5027327;28;20477;-67
2021/05/14 11:19:28;;;;;;;2.10;1.90;;;21.00;99.90;;;;;;5023846;28;20488;-68
2021/05/14 11:22:04;;;;;;;1.87;1.50;;;20.90;99.90;;;;;;5028558;28;20855;-71
2021/05/14 11:24:35;;;;;;;1.80;1.70;;;20.50;99.90;;;;;;5025987;28;20440;-68
2021/05/14 11:27:08;;;;;;;1.50;1.40;;;20.70;99.90;;;;;;5027418;28;20495;-69
2021/05/14 11:29:42;;;;;;;2.40;1.50;;;20.70;99.90;;;;;;5026416;28;20788;-68
2021/05/14 11:32:21;;;;;;;1.70;1.60;;;20.30;99.90;;;;;;5024097;28;20946;-68
2021/05/14 11:34:58;;;;;;;1.47;1.33;;;20.30;99.90;;;;;;5012419;28;20476;-68
2021/05/14 11:37:33;;;;;;;1.47;1.33;;;20.30;99.90;;;;;;5030132;28;20465;-70
2021/05/14 11:40:11;;;;;;;1.67;1.57;;;20.20;99.90;;;;;;5035306;28;20418;-68
2021/05/14 11:42:48;;;;;;;1.77;1.27;;;20.00;99.90;;;;;;5036706;28;20453;-71
2021/05/14 11:45:19;;;;;;;1.50;1.20;;;20.00;99.90;;;;;;5033439;28;20419;-68
2021/05/14 11:47:56;;;;;;;1.33;1.23;;;19.90;99.90;;;;;;5023704;28;21000;-69
2021/05/14 11:50:32;;;;;;;1.33;1.23;;;19.60;99.90;;;;;;5048302;28;20412;-70
2021/05/14 11:52:59;;;;;;;1.50;1.10;;;19.60;99.90;;;;;;5027930;28;20461;-69
2021/05/14 11:55:25;;;;;;;2.07;1.97;;;19.80;99.90;;;;;;5028472;28;20469;-70
2021/05/14 11:57:53;;;;;;;1.40;1.30;;;19.70;99.90;;;;;;5030944;28;20439;-68
2021/05/14 12:00:43;;;;;;;1.23;1.10;;;19.80;99.90;;;;;;5067595;28;20896;-68
2021/05/14 12:03:13;;;;;;;1.00;1.00;;;19.50;99.90;;;;;;5033366;28;20516;-68
2021/05/14 12:05:41;;;;;;;1.00;0.97;;;19.70;99.90;;;;;;5031253;28;20549;-70
2021/05/14 12:08:20;;;;;;;0.90;0.90;;;19.80;99.90;;;;;;5033550;28;20504;-68
2021/05/14 12:10:51;;;;;;;1.40;1.07;;;19.80;99.90;;;;;;5028515;28;21044;-68
2021/05/14 12:13:30;;;;;;;1.20;1.10;;;20.10;99.90;;;;;;5027362;28;20452;-70
2021/05/14 12:15:59;;;;;;;1.20;1.00;;;20.10;99.90;;;;;;5033176;28;20505;-70
2021/05/14 12:18:26;;;;;;;1.00;1.00;;;20.00;99.90;;;;;;5033912;28;20433;-68
2021/05/14 12:20:55;;;;;;;1.87;1.03;;;20.10;99.90;;;;;;5033897;28;20521;-68
2021/05/14 12:23:22;;;;;;;1.00;0.90;;;20.00;99.90;;;;;;5027002;28;20431;-68
2021/05/14 12:25:50;;;;;;;9.80;1.77;;;20.10;99.90;;;;;;5030687;28;20946;-69
2021/05/14 12:28:45;;;;;;;1.00;1.00;;;20.10;99.90;;;;;;5026214;28;21045;-69
2021/05/14 12:31:31;;;;;;;0.90;0.90;;;20.20;99.90;;;;;;5035179;28;20792;-69
2021/05/14 12:34:09;;;;;;;0.80;0.80;;;20.00;99.90;;;;;;5035050;28;20418;-71
2021/05/14 12:36:39;;;;;;;1.00;0.90;;;19.90;99.90;;;;;;5032978;28;20540;-71
2021/05/14 12:39:16;;;;;;;0.93;0.90;;;19.80;99.90;;;;;;5037412;28;20874;-70
2021/05/14 12:41:43;;;;;;;0.90;0.90;;;19.90;99.90;;;;;;5038301;28;20496;-71
2021/05/14 12:44:11;;;;;;;1.43;1.33;;;19.90;99.90;;;;;;5035068;28;20431;-68
2021/05/14 12:46:38;;;;;;;0.70;0.70;;;19.90;99.90;;;;;;5032794;28;20971;-70
2021/05/14 12:49:11;;;;;;;1.37;0.80;;;19.70;99.90;;;;;;5044983;28;20426;-70
2021/05/14 12:51:38;;;;;;;2.10;0.97;;;19.60;99.90;;;;;;5033278;28;20454;-68
2021/05/14 12:54:04;;;;;;;1.23;1.07;;;19.60;99.90;;;;;;5028603;28;20411;-70
2021/05/14 12:56:30;;;;;;;0.90;0.90;;;19.60;99.90;;;;;;5018050;28;21003;-70